sensor_id;sensor_type;location;lat;lon;timestamp;P1;durP1;ratioP1;P2;durP2;ratioP2
12861;SDS011;6499;66.348;14.134;2023-04-03T00:01:04;0.70;;;0.50;;
12861;SDS011;6499;66.348;14.134;2023-04-03T00:03:31;1.37;;;0.67;;
12861;SDS011;6499;66.348;14.134;2023-04-03T00:05:57;1.00;;;0.50;;
12861;SDS011;6499;66.348;14.134;2023-04-03T00:08:24;1.43;;;0.80;;
12861;SDS011;6499;66.348;14.134;2023-04-03T00:10:51;0.40;;;0.40;;
12861;SDS011;6499;66.348;14.134;2023-04-03T00:13:17;1.70;;;0.60;;
12861;SDS011;6499;66.348;14.134;2023-04-03T00:15:44;1.57;;;0.60;;
12861;SDS011;6499;66.348;14.134;2023-04-03T00:18:12;0.67;;;0.50;;
12861;SDS011;6499;66.348;14.134;2023-04-03T00:20:38;1.90;;;0.50;;
12861;SDS011;6499;66.348;14.134;2023-04-03T00:23:05;1.37;;;0.70;;
12861;SDS011;6499;66.348;14.134;2023-04-03T00:25:31;1.07;;;0.50;;
12861;SDS011;6499;66.348;14.134;2023-04-03T00:27:58;1.53;;;0.60;;
12861;SDS011;6499;66.348;14.134;2023-04-03T00:30:24;1.33;;;0.70;;
12861;SDS011;6499;66.348;14.134;2023-04-03T00:32:51;0.90;;;0.57;;
12861;SDS011;6499;66.348;14.134;2023-04-03T00:35:20;2.60;;;0.50;;
12861;SDS011;6499;66.348;14.134;2023-04-03T00:37:47;4.10;;;0.77;;
12861;SDS011;6499;66.348;14.134;2023-04-03T00:40:14;11.83;;;5.53;;
12861;SDS011;6499;66.348;14.134;2023-04-03T00:42:41;42.97;;;20.03;;
12861;SDS011;6499;66.348;14.134;2023-04-03T00:45:23;45.93;;;21.07;;
12861;SDS011;6499;66.348;14.134;2023-04-03T00:47:50;26.93;;;11.47;;
12861;SDS011;6499;66.348;14.134;2023-04-03T00:50:16;13.97;;;6.53;;
12861;SDS011;6499;66.348;14.134;2023-04-03T00:52:44;10.90;;;3.83;;
12861;SDS011;6499;66.348;14.134;2023-04-03T00:55:14;7.50;;;3.43;;
12861;SDS011;6499;66.348;14.134;2023-04-03T00:57:41;5.73;;;2.63;;
12861;SDS011;6499;66.348;14.134;2023-04-03T01:00:10;7.97;;;3.40;;
12861;SDS011;6499;66.348;14.134;2023-04-03T01:02:37;5.20;;;2.60;;
12861;SDS011;6499;66.348;14.134;2023-04-03T01:05:06;5.47;;;1.87;;
12861;SDS011;6499;66.348;14.134;2023-04-03T01:07:32;3.53;;;1.40;;
12861;SDS011;6499;66.348;14.134;2023-04-03T01:10:04;1.77;;;0.90;;
12861;SDS011;6499;66.348;14.134;2023-04-03T01:12:32;2.60;;;0.90;;
12861;SDS011;6499;66.348;14.134;2023-04-03T01:15:00;1.33;;;1.00;;
12861;SDS011;6499;66.348;14.134;2023-04-03T01:17:27;5.13;;;1.10;;
12861;SDS011;6499;66.348;14.134;2023-04-03T01:19:57;1.90;;;0.70;;
12861;SDS011;6499;66.348;14.134;2023-04-03T01:22:29;2.50;;;0.87;;
12861;SDS011;6499;66.348;14.134;2023-04-03T01:24:58;0.67;;;0.50;;
12861;SDS011;6499;66.348;14.134;2023-04-03T01:27:26;0.70;;;0.50;;
12861;SDS011;6499;66.348;14.134;2023-04-03T01:29:52;2.00;;;0.80;;
12861;SDS011;6499;66.348;14.134;2023-04-03T01:32:20;2.23;;;0.70;;
12861;SDS011;6499;66.348;14.134;2023-04-03T01:34:47;1.60;;;0.73;;
12861;SDS011;6499;66.348;14.134;2023-04-03T01:37:13;1.20;;;0.70;;
12861;SDS011;6499;66.348;14.134;2023-04-03T01:39:40;1.37;;;0.93;;
12861;SDS011;6499;66.348;14.134;2023-04-03T01:42:06;1.53;;;0.40;;
12861;SDS011;6499;66.348;14.134;2023-04-03T01:44:33;1.07;;;0.67;;
12861;SDS011;6499;66.348;14.134;2023-04-03T01:46:59;3.03;;;0.70;;
12861;SDS011;6499;66.348;14.134;2023-04-03T01:49:27;0.90;;;0.60;;
12861;SDS011;6499;66.348;14.134;2023-04-03T01:51:53;1.23;;;0.53;;
12861;SDS011;6499;66.348;14.134;2023-04-03T01:54:20;0.87;;;0.63;;
12861;SDS011;6499;66.348;14.134;2023-04-03T01:56:46;1.63;;;0.60;;
12861;SDS011;6499;66.348;14.134;2023-04-03T01:59:13;0.90;;;0.50;;
12861;SDS011;6499;66.348;14.134;2023-04-03T02:01:42;1.37;;;0.80;;
12861;SDS011;6499;66.348;14.134;2023-04-03T02:04:08;3.17;;;0.57;;
12861;SDS011;6499;66.348;14.134;2023-04-03T02:06:36;1.23;;;0.50;;
12861;SDS011;6499;66.348;14.134;2023-04-03T02:09:03;0.50;;;0.40;;
12861;SDS011;6499;66.348;14.134;2023-04-03T02:11:30;1.50;;;0.50;;
12861;SDS011;6499;66.348;14.134;2023-04-03T02:13:56;1.00;;;0.43;;
12861;SDS011;6499;66.348;14.134;2023-04-03T02:16:23;1.43;;;0.60;;
12861;SDS011;6499;66.348;14.134;2023-04-03T02:18:49;2.57;;;0.50;;
12861;SDS011;6499;66.348;14.134;2023-04-03T02:21:16;1.17;;;0.50;;
12861;SDS011;6499;66.348;14.134;2023-04-03T02:23:43;1.13;;;0.77;;
12861;SDS011;6499;66.348;14.134;2023-04-03T02:26:11;0.87;;;0.60;;
12861;SDS011;6499;66.348;14.134;2023-04-03T02:28:38;0.50;;;0.40;;
12861;SDS011;6499;66.348;14.134;2023-04-03T02:31:06;0.50;;;0.50;;
12861;SDS011;6499;66.348;14.134;2023-04-03T02:33:33;0.60;;;0.50;;
12861;SDS011;6499;66.348;14.134;2023-04-03T02:36:01;0.53;;;0.50;;
12861;SDS011;6499;66.348;14.134;2023-04-03T02:38:27;0.63;;;0.50;;
12861;SDS011;6499;66.348;14.134;2023-04-03T02:41:00;1.33;;;0.63;;
12861;SDS011;6499;66.348;14.134;2023-04-03T02:43:27;0.77;;;0.50;;
12861;SDS011;6499;66.348;14.134;2023-04-03T02:45:53;0.50;;;0.43;;
12861;SDS011;6499;66.348;14.134;2023-04-03T02:48:20;0.80;;;0.60;;
12861;SDS011;6499;66.348;14.134;2023-04-03T02:50:46;1.93;;;0.70;;
12861;SDS011;6499;66.348;14.134;2023-04-03T02:53:13;1.10;;;0.60;;
12861;SDS011;6499;66.348;14.134;2023-04-03T02:55:40;1.57;;;0.60;;
12861;SDS011;6499;66.348;14.134;2023-04-03T02:58:08;0.53;;;0.50;;
12861;SDS011;6499;66.348;14.134;2023-04-03T03:00:34;0.93;;;0.53;;
12861;SDS011;6499;66.348;14.134;2023-04-03T03:03:01;1.57;;;0.50;;
12861;SDS011;6499;66.348;14.134;2023-04-03T03:05:27;2.07;;;0.57;;
12861;SDS011;6499;66.348;14.134;2023-04-03T03:07:54;1.03;;;0.40;;
12861;SDS011;6499;66.348;14.134;2023-04-03T03:10:20;6.53;;;2.00;;
12861;SDS011;6499;66.348;14.134;2023-04-03T03:12:47;0.87;;;0.50;;
12861;SDS011;6499;66.348;14.134;2023-04-03T03:15:15;1.10;;;0.60;;
12861;SDS011;6499;66.348;14.134;2023-04-03T03:17:42;1.10;;;0.50;;
12861;SDS011;6499;66.348;14.134;2023-04-03T03:20:09;1.37;;;0.60;;
12861;SDS011;6499;66.348;14.134;2023-04-03T03:22:36;1.67;;;0.73;;
12861;SDS011;6499;66.348;14.134;2023-04-03T03:25:03;0.60;;;0.47;;
12861;SDS011;6499;66.348;14.134;2023-04-03T03:27:30;1.57;;;0.60;;
12861;SDS011;6499;66.348;14.134;2023-04-03T03:29:56;2.13;;;0.80;;
12861;SDS011;6499;66.348;14.134;2023-04-03T03:32:24;1.30;;;0.60;;
12861;SDS011;6499;66.348;14.134;2023-04-03T03:34:50;2.50;;;0.53;;
12861;SDS011;6499;66.348;14.134;2023-04-03T03:37:17;0.73;;;0.40;;
12861;SDS011;6499;66.348;14.134;2023-04-03T03:39:43;1.70;;;0.60;;
12861;SDS011;6499;66.348;14.134;2023-04-03T03:42:10;0.50;;;0.40;;
12861;SDS011;6499;66.348;14.134;2023-04-03T03:44:36;1.90;;;0.77;;
12861;SDS011;6499;66.348;14.134;2023-04-03T03:47:02;0.70;;;0.40;;
12861;SDS011;6499;66.348;14.134;2023-04-03T03:49:32;0.73;;;0.50;;
12861;SDS011;6499;66.348;14.134;2023-04-03T03:51:58;1.03;;;0.40;;
12861;SDS011;6499;66.348;14.134;2023-04-03T03:54:25;0.90;;;0.60;;
12861;SDS011;6499;66.348;14.134;2023-04-03T03:56:51;2.67;;;0.50;;
12861;SDS011;6499;66.348;14.134;2023-04-03T03:59:18;2.37;;;0.70;;
12861;SDS011;6499;66.348;14.134;2023-04-03T04:01:45;0.87;;;0.50;;
12861;SDS011;6499;66.348;14.134;2023-04-03T04:04:11;1.90;;;0.60;;
12861;SDS011;6499;66.348;14.134;2023-04-03T04:06:39;1.30;;;0.60;;
12861;SDS011;6499;66.348;14.134;2023-04-03T04:09:05;1.53;;;0.67;;
12861;SDS011;6499;66.348;14.134;2023-04-03T04:11:32;0.40;;;0.40;;
12861;SDS011;6499;66.348;14.134;2023-04-03T04:13:59;0.80;;;0.50;;
12861;SDS011;6499;66.348;14.134;2023-04-03T04:16:26;0.63;;;0.50;;
12861;SDS011;6499;66.348;14.134;2023-04-03T04:18:52;1.53;;;0.60;;
12861;SDS011;6499;66.348;14.134;2023-04-03T04:21:18;1.57;;;0.60;;
12861;SDS011;6499;66.348;14.134;2023-04-03T04:23:46;2.97;;;0.93;;
12861;SDS011;6499;66.348;14.134;2023-04-03T04:26:13;0.83;;;0.60;;
12861;SDS011;6499;66.348;14.134;2023-04-03T04:28:39;2.27;;;0.60;;
12861;SDS011;6499;66.348;14.134;2023-04-03T04:31:06;0.97;;;0.47;;
12861;SDS011;6499;66.348;14.134;2023-04-03T04:33:32;0.80;;;0.50;;
12861;SDS011;6499;66.348;14.134;2023-04-03T04:35:59;1.70;;;0.50;;
12861;SDS011;6499;66.348;14.134;2023-04-03T04:38:25;1.50;;;0.77;;
12861;SDS011;6499;66.348;14.134;2023-04-03T04:40:53;1.47;;;0.50;;
12861;SDS011;6499;66.348;14.134;2023-04-03T04:43:19;0.60;;;0.50;;
12861;SDS011;6499;66.348;14.134;2023-04-03T04:45:46;1.70;;;0.50;;
12861;SDS011;6499;66.348;14.134;2023-04-03T04:48:12;0.90;;;0.60;;
12861;SDS011;6499;66.348;14.134;2023-04-03T04:50:39;1.77;;;0.40;;
12861;SDS011;6499;66.348;14.134;2023-04-03T04:53:05;0.90;;;0.60;;
12861;SDS011;6499;66.348;14.134;2023-04-03T04:55:32;1.50;;;0.50;;
12861;SDS011;6499;66.348;14.134;2023-04-03T04:57:59;2.57;;;0.60;;
12861;SDS011;6499;66.348;14.134;2023-04-03T05:00:26;3.13;;;1.47;;
12861;SDS011;6499;66.348;14.134;2023-04-03T05:02:52;2.47;;;0.60;;
12861;SDS011;6499;66.348;14.134;2023-04-03T05:05:19;0.60;;;0.60;;
12861;SDS011;6499;66.348;14.134;2023-04-03T05:07:45;0.87;;;0.47;;
12861;SDS011;6499;66.348;14.134;2023-04-03T05:10:12;1.23;;;0.60;;
12861;SDS011;6499;66.348;14.134;2023-04-03T05:12:38;1.50;;;0.50;;
12861;SDS011;6499;66.348;14.134;2023-04-03T05:15:07;1.03;;;0.40;;
12861;SDS011;6499;66.348;14.134;2023-04-03T05:17:34;1.90;;;0.70;;
12861;SDS011;6499;66.348;14.134;2023-04-03T05:20:01;1.00;;;0.40;;
12861;SDS011;6499;66.348;14.134;2023-04-03T05:22:28;1.23;;;0.60;;
12861;SDS011;6499;66.348;14.134;2023-04-03T05:24:54;5.07;;;2.13;;
12861;SDS011;6499;66.348;14.134;2023-04-03T05:27:20;7.10;;;3.27;;
12861;SDS011;6499;66.348;14.134;2023-04-03T05:29:48;2.20;;;0.90;;
12861;SDS011;6499;66.348;14.134;2023-04-03T05:32:16;2.07;;;1.00;;
12861;SDS011;6499;66.348;14.134;2023-04-03T05:34:42;2.77;;;1.17;;
12861;SDS011;6499;66.348;14.134;2023-04-03T05:37:10;4.37;;;2.17;;
12861;SDS011;6499;66.348;14.134;2023-04-03T05:39:36;2.13;;;1.17;;
12861;SDS011;6499;66.348;14.134;2023-04-03T05:42:03;1.53;;;0.70;;
12861;SDS011;6499;66.348;14.134;2023-04-03T05:44:30;2.80;;;0.73;;
12861;SDS011;6499;66.348;14.134;2023-04-03T05:46:56;1.90;;;0.80;;
12861;SDS011;6499;66.348;14.134;2023-04-03T05:49:24;1.40;;;1.20;;
12861;SDS011;6499;66.348;14.134;2023-04-03T05:51:51;1.70;;;0.57;;
12861;SDS011;6499;66.348;14.134;2023-04-03T05:54:18;0.87;;;0.50;;
12861;SDS011;6499;66.348;14.134;2023-04-03T05:56:46;1.73;;;0.67;;
12861;SDS011;6499;66.348;14.134;2023-04-03T06:01:46;2.13;;;0.70;;
12861;SDS011;6499;66.348;14.134;2023-04-03T06:04:13;0.93;;;0.50;;
12861;SDS011;6499;66.348;14.134;2023-04-03T06:06:45;0.77;;;0.60;;
12861;SDS011;6499;66.348;14.134;2023-04-03T06:09:11;3.33;;;3.00;;
12861;SDS011;6499;66.348;14.134;2023-04-03T06:11:38;2.20;;;1.80;;
12861;SDS011;6499;66.348;14.134;2023-04-03T06:23:13;0.67;;;0.53;;
12861;SDS011;6499;66.348;14.134;2023-04-03T06:25:39;2.70;;;0.97;;
12861;SDS011;6499;66.348;14.134;2023-04-03T06:28:07;1.27;;;0.80;;
12861;SDS011;6499;66.348;14.134;2023-04-03T06:30:35;1.00;;;0.50;;
12861;SDS011;6499;66.348;14.134;2023-04-03T06:33:01;1.53;;;0.60;;
12861;SDS011;6499;66.348;14.134;2023-04-03T06:35:28;0.80;;;0.63;;
12861;SDS011;6499;66.348;14.134;2023-04-03T06:37:55;1.07;;;0.80;;
12861;SDS011;6499;66.348;14.134;2023-04-03T06:40:24;1.37;;;0.80;;
12861;SDS011;6499;66.348;14.134;2023-04-03T06:42:51;0.80;;;0.60;;
12861;SDS011;6499;66.348;14.134;2023-04-03T06:45:17;1.83;;;0.63;;
12861;SDS011;6499;66.348;14.134;2023-04-03T06:47:44;4.03;;;0.63;;
12861;SDS011;6499;66.348;14.134;2023-04-03T06:50:11;2.03;;;0.80;;
12861;SDS011;6499;66.348;14.134;2023-04-03T06:52:39;2.27;;;1.23;;
12861;SDS011;6499;66.348;14.134;2023-04-03T06:55:06;2.93;;;0.60;;
12861;SDS011;6499;66.348;14.134;2023-04-03T06:57:34;0.93;;;0.60;;
12861;SDS011;6499;66.348;14.134;2023-04-03T07:00:01;1.73;;;0.70;;
12861;SDS011;6499;66.348;14.134;2023-04-03T07:05:11;0.40;;;0.37;;
12861;SDS011;6499;66.348;14.134;2023-04-03T07:07:38;0.80;;;0.47;;
12861;SDS011;6499;66.348;14.134;2023-04-03T07:10:06;0.97;;;0.70;;
12861;SDS011;6499;66.348;14.134;2023-04-03T07:12:32;2.90;;;0.97;;
12861;SDS011;6499;66.348;14.134;2023-04-03T07:15:00;0.83;;;0.60;;
12861;SDS011;6499;66.348;14.134;2023-04-03T07:17:27;1.37;;;0.90;;
12861;SDS011;6499;66.348;14.134;2023-04-03T07:19:54;0.93;;;0.70;;
12861;SDS011;6499;66.348;14.134;2023-04-03T07:22:21;3.67;;;2.50;;
12861;SDS011;6499;66.348;14.134;2023-04-03T07:24:47;2.83;;;1.50;;
12861;SDS011;6499;66.348;14.134;2023-04-03T07:27:13;2.87;;;0.97;;
12861;SDS011;6499;66.348;14.134;2023-04-03T07:29:40;2.80;;;1.40;;
12861;SDS011;6499;66.348;14.134;2023-04-03T07:32:09;1.63;;;0.90;;
12861;SDS011;6499;66.348;14.134;2023-04-03T07:34:36;1.97;;;0.60;;
12861;SDS011;6499;66.348;14.134;2023-04-03T07:37:02;1.60;;;0.53;;
12861;SDS011;6499;66.348;14.134;2023-04-03T07:39:29;0.73;;;0.57;;
12861;SDS011;6499;66.348;14.134;2023-04-03T07:41:56;1.73;;;0.80;;
12861;SDS011;6499;66.348;14.134;2023-04-03T07:44:23;1.80;;;0.53;;
12861;SDS011;6499;66.348;14.134;2023-04-03T07:46:49;0.80;;;0.60;;
12861;SDS011;6499;66.348;14.134;2023-04-03T07:49:18;0.97;;;0.80;;
12861;SDS011;6499;66.348;14.134;2023-04-03T07:51:44;4.20;;;1.00;;
12861;SDS011;6499;66.348;14.134;2023-04-03T07:54:11;1.87;;;0.57;;
12861;SDS011;6499;66.348;14.134;2023-04-03T07:56:38;2.93;;;1.33;;
12861;SDS011;6499;66.348;14.134;2023-04-03T07:59:04;1.73;;;1.10;;
12861;SDS011;6499;66.348;14.134;2023-04-03T08:01:31;0.70;;;0.50;;
12861;SDS011;6499;66.348;14.134;2023-04-03T08:03:58;1.23;;;0.73;;
12861;SDS011;6499;66.348;14.134;2023-04-03T08:06:26;1.53;;;0.70;;
12861;SDS011;6499;66.348;14.134;2023-04-03T08:08:54;1.03;;;0.53;;
12861;SDS011;6499;66.348;14.134;2023-04-03T08:11:21;0.40;;;0.40;;
12861;SDS011;6499;66.348;14.134;2023-04-03T08:13:48;0.90;;;0.50;;
12861;SDS011;6499;66.348;14.134;2023-04-03T08:16:16;1.30;;;0.80;;
12861;SDS011;6499;66.348;14.134;2023-04-03T08:18:43;1.50;;;0.73;;
12861;SDS011;6499;66.348;14.134;2023-04-03T08:21:10;1.23;;;0.60;;
12861;SDS011;6499;66.348;14.134;2023-04-03T08:23:38;1.70;;;0.60;;
12861;SDS011;6499;66.348;14.134;2023-04-03T08:26:15;1.67;;;0.90;;
12861;SDS011;6499;66.348;14.134;2023-04-03T08:28:41;1.67;;;0.90;;
12861;SDS011;6499;66.348;14.134;2023-04-03T08:31:09;1.87;;;0.90;;
12861;SDS011;6499;66.348;14.134;2023-04-03T08:33:37;2.53;;;1.00;;
12861;SDS011;6499;66.348;14.134;2023-04-03T08:36:03;1.10;;;0.60;;
12861;SDS011;6499;66.348;14.134;2023-04-03T08:38:30;2.20;;;1.00;;
12861;SDS011;6499;66.348;14.134;2023-04-03T08:41:04;0.73;;;0.60;;
12861;SDS011;6499;66.348;14.134;2023-04-03T08:43:33;1.23;;;0.60;;
12861;SDS011;6499;66.348;14.134;2023-04-03T08:46:03;1.30;;;0.70;;
12861;SDS011;6499;66.348;14.134;2023-04-03T08:48:32;1.83;;;0.73;;
12861;SDS011;6499;66.348;14.134;2023-04-03T08:51:00;1.07;;;0.57;;
12861;SDS011;6499;66.348;14.134;2023-04-03T08:53:28;2.73;;;0.77;;
12861;SDS011;6499;66.348;14.134;2023-04-03T08:55:57;1.00;;;0.60;;
12861;SDS011;6499;66.348;14.134;2023-04-03T08:58:26;0.50;;;0.40;;
12861;SDS011;6499;66.348;14.134;2023-04-03T09:00:54;0.70;;;0.60;;
12861;SDS011;6499;66.348;14.134;2023-04-03T09:03:22;1.67;;;0.60;;
12861;SDS011;6499;66.348;14.134;2023-04-03T09:05:50;0.70;;;0.50;;
12861;SDS011;6499;66.348;14.134;2023-04-03T09:08:23;1.77;;;0.87;;
12861;SDS011;6499;66.348;14.134;2023-04-03T09:10:52;0.90;;;0.60;;
12861;SDS011;6499;66.348;14.134;2023-04-03T09:13:24;0.93;;;0.50;;
12861;SDS011;6499;66.348;14.134;2023-04-03T09:15:54;2.17;;;0.80;;
12861;SDS011;6499;66.348;14.134;2023-04-03T09:18:23;0.77;;;0.50;;
12861;SDS011;6499;66.348;14.134;2023-04-03T09:20:53;1.37;;;0.50;;
12861;SDS011;6499;66.348;14.134;2023-04-03T09:23:24;0.60;;;0.50;;
12861;SDS011;6499;66.348;14.134;2023-04-03T09:25:53;0.63;;;0.50;;
12861;SDS011;6499;66.348;14.134;2023-04-03T09:28:22;0.60;;;0.47;;
12861;SDS011;6499;66.348;14.134;2023-04-03T09:30:49;5.10;;;0.93;;
12861;SDS011;6499;66.348;14.134;2023-04-03T09:33:17;3.37;;;0.83;;
12861;SDS011;6499;66.348;14.134;2023-04-03T09:35:43;1.93;;;0.90;;
12861;SDS011;6499;66.348;14.134;2023-04-03T09:38:17;1.13;;;0.80;;
12861;SDS011;6499;66.348;14.134;2023-04-03T09:40:44;0.70;;;0.60;;
12861;SDS011;6499;66.348;14.134;2023-04-03T09:43:25;1.57;;;0.60;;
12861;SDS011;6499;66.348;14.134;2023-04-03T09:45:52;1.63;;;0.60;;
12861;SDS011;6499;66.348;14.134;2023-04-03T09:48:20;1.70;;;0.50;;
12861;SDS011;6499;66.348;14.134;2023-04-03T09:50:55;1.17;;;0.50;;
12861;SDS011;6499;66.348;14.134;2023-04-03T09:53:34;0.50;;;0.40;;
12861;SDS011;6499;66.348;14.134;2023-04-03T09:56:02;1.30;;;0.50;;
12861;SDS011;6499;66.348;14.134;2023-04-03T09:58:30;1.43;;;0.43;;
12861;SDS011;6499;66.348;14.134;2023-04-03T10:00:58;1.20;;;0.70;;
12861;SDS011;6499;66.348;14.134;2023-04-03T10:03:29;2.00;;;0.70;;
12861;SDS011;6499;66.348;14.134;2023-04-03T10:05:56;1.60;;;0.80;;
12861;SDS011;6499;66.348;14.134;2023-04-03T10:08:26;1.80;;;1.70;;
12861;SDS011;6499;66.348;14.134;2023-04-03T10:11:09;1.87;;;0.97;;
12861;SDS011;6499;66.348;14.134;2023-04-03T10:13:36;3.30;;;1.00;;
12861;SDS011;6499;66.348;14.134;2023-04-03T10:16:16;3.60;;;1.10;;
12861;SDS011;6499;66.348;14.134;2023-04-03T10:18:45;1.70;;;1.10;;
12861;SDS011;6499;66.348;14.134;2023-04-03T10:21:14;1.80;;;1.07;;
12861;SDS011;6499;66.348;14.134;2023-04-03T10:23:42;4.63;;;2.70;;
12861;SDS011;6499;66.348;14.134;2023-04-03T10:26:12;3.90;;;2.37;;
12861;SDS011;6499;66.348;14.134;2023-04-03T10:28:43;3.60;;;1.70;;
12861;SDS011;6499;66.348;14.134;2023-04-03T10:31:13;5.87;;;3.20;;
12861;SDS011;6499;66.348;14.134;2023-04-03T10:33:44;3.23;;;1.97;;
12861;SDS011;6499;66.348;14.134;2023-04-03T10:36:17;1.90;;;1.50;;
12861;SDS011;6499;66.348;14.134;2023-04-03T10:38:48;2.20;;;1.47;;
12861;SDS011;6499;66.348;14.134;2023-04-03T10:41:18;1.97;;;1.00;;
12861;SDS011;6499;66.348;14.134;2023-04-03T10:43:58;1.83;;;0.87;;
12861;SDS011;6499;66.348;14.134;2023-04-03T10:46:32;0.87;;;0.50;;
12861;SDS011;6499;66.348;14.134;2023-04-03T10:49:04;1.20;;;0.60;;
12861;SDS011;6499;66.348;14.134;2023-04-03T10:51:38;1.67;;;0.80;;
12861;SDS011;6499;66.348;14.134;2023-04-03T10:54:08;3.10;;;0.80;;
12861;SDS011;6499;66.348;14.134;2023-04-03T10:56:37;1.60;;;0.80;;
12861;SDS011;6499;66.348;14.134;2023-04-03T10:59:08;3.07;;;1.50;;
12861;SDS011;6499;66.348;14.134;2023-04-03T11:01:40;3.70;;;1.33;;
12861;SDS011;6499;66.348;14.134;2023-04-03T11:04:07;2.90;;;1.47;;
12861;SDS011;6499;66.348;14.134;2023-04-03T11:06:40;3.17;;;1.43;;
12861;SDS011;6499;66.348;14.134;2023-04-03T11:09:11;2.77;;;1.20;;
12861;SDS011;6499;66.348;14.134;2023-04-03T11:11:42;2.00;;;1.00;;
12861;SDS011;6499;66.348;14.134;2023-04-03T11:14:32;2.90;;;1.07;;
12861;SDS011;6499;66.348;14.134;2023-04-03T11:17:03;2.70;;;1.27;;
12861;SDS011;6499;66.348;14.134;2023-04-03T11:19:33;2.50;;;1.20;;
12861;SDS011;6499;66.348;14.134;2023-04-03T11:24:52;2.77;;;1.20;;
12861;SDS011;6499;66.348;14.134;2023-04-03T11:27:38;1.20;;;0.60;;
12861;SDS011;6499;66.348;14.134;2023-04-03T11:30:18;1.60;;;0.63;;
12861;SDS011;6499;66.348;14.134;2023-04-03T11:35:42;1.97;;;0.93;;
12861;SDS011;6499;66.348;14.134;2023-04-03T11:38:13;1.27;;;0.90;;
12861;SDS011;6499;66.348;14.134;2023-04-03T11:40:50;1.10;;;1.00;;
12861;SDS011;6499;66.348;14.134;2023-04-03T11:43:24;1.27;;;0.90;;
12861;SDS011;6499;66.348;14.134;2023-04-03T11:45:56;1.40;;;0.80;;
12861;SDS011;6499;66.348;14.134;2023-04-03T11:48:47;0.47;;;0.40;;
12861;SDS011;6499;66.348;14.134;2023-04-03T11:53:24;1.30;;;1.00;;
12861;SDS011;6499;66.348;14.134;2023-04-03T11:54:42;1.10;;;0.77;;
12861;SDS011;6499;66.348;14.134;2023-04-03T12:02:50;1.33;;;1.00;;
12861;SDS011;6499;66.348;14.134;2023-04-03T12:05:37;0.60;;;0.60;;
12861;SDS011;6499;66.348;14.134;2023-04-03T12:13:30;2.60;;;1.33;;
12861;SDS011;6499;66.348;14.134;2023-04-03T12:15:56;2.83;;;1.27;;
12861;SDS011;6499;66.348;14.134;2023-04-03T12:18:37;1.30;;;1.07;;
12861;SDS011;6499;66.348;14.134;2023-04-03T12:21:08;3.33;;;1.73;;
12861;SDS011;6499;66.348;14.134;2023-04-03T12:26:21;2.10;;;1.33;;
12861;SDS011;6499;66.348;14.134;2023-04-03T12:28:50;3.67;;;1.60;;
12861;SDS011;6499;66.348;14.134;2023-04-03T12:31:25;2.17;;;1.60;;
12861;SDS011;6499;66.348;14.134;2023-04-03T12:36:50;1.70;;;1.23;;
12861;SDS011;6499;66.348;14.134;2023-04-03T12:42:04;6.47;;;4.23;;
12861;SDS011;6499;66.348;14.134;2023-04-03T12:44:42;5.77;;;4.90;;
12861;SDS011;6499;66.348;14.134;2023-04-03T12:47:23;4.33;;;3.50;;
12861;SDS011;6499;66.348;14.134;2023-04-03T12:49:51;2.90;;;1.40;;
12861;SDS011;6499;66.348;14.134;2023-04-03T12:52:22;2.10;;;1.20;;
12861;SDS011;6499;66.348;14.134;2023-04-03T12:54:56;1.83;;;1.27;;
12861;SDS011;6499;66.348;14.134;2023-04-03T12:57:29;2.43;;;1.40;;
12861;SDS011;6499;66.348;14.134;2023-04-03T13:02:43;1.93;;;1.30;;
12861;SDS011;6499;66.348;14.134;2023-04-03T13:05:14;3.20;;;1.30;;
12861;SDS011;6499;66.348;14.134;2023-04-03T13:07:47;2.30;;;1.40;;
12861;SDS011;6499;66.348;14.134;2023-04-03T13:10:18;1.17;;;0.70;;
12861;SDS011;6499;66.348;14.134;2023-04-03T13:12:48;1.07;;;0.90;;
12861;SDS011;6499;66.348;14.134;2023-04-03T13:15:15;1.63;;;0.60;;
12861;SDS011;6499;66.348;14.134;2023-04-03T13:17:44;1.00;;;0.60;;
12861;SDS011;6499;66.348;14.134;2023-04-03T13:20:16;0.87;;;0.50;;
12861;SDS011;6499;66.348;14.134;2023-04-03T13:22:49;1.77;;;0.83;;
12861;SDS011;6499;66.348;14.134;2023-04-03T13:25:17;1.57;;;0.70;;
12861;SDS011;6499;66.348;14.134;2023-04-03T13:27:46;2.03;;;0.80;;
12861;SDS011;6499;66.348;14.134;2023-04-03T13:30:19;2.47;;;0.50;;
12861;SDS011;6499;66.348;14.134;2023-04-03T13:34:29;1.80;;;0.70;;
12861;SDS011;6499;66.348;14.134;2023-04-03T13:35:57;1.17;;;0.50;;
12861;SDS011;6499;66.348;14.134;2023-04-03T13:38:31;1.53;;;0.73;;
12861;SDS011;6499;66.348;14.134;2023-04-03T13:40:59;1.40;;;0.60;;
12861;SDS011;6499;66.348;14.134;2023-04-03T13:43:28;1.17;;;0.70;;
12861;SDS011;6499;66.348;14.134;2023-04-03T13:46:05;1.00;;;0.53;;
12861;SDS011;6499;66.348;14.134;2023-04-03T13:48:36;3.93;;;1.23;;
12861;SDS011;6499;66.348;14.134;2023-04-03T13:51:04;3.07;;;2.10;;
12861;SDS011;6499;66.348;14.134;2023-04-03T13:53:33;4.57;;;1.60;;
12861;SDS011;6499;66.348;14.134;2023-04-03T13:56:05;1.40;;;1.10;;
12861;SDS011;6499;66.348;14.134;2023-04-03T13:58:32;1.53;;;0.80;;
12861;SDS011;6499;66.348;14.134;2023-04-03T14:01:00;1.50;;;0.70;;
12861;SDS011;6499;66.348;14.134;2023-04-03T14:03:29;1.53;;;0.73;;
12861;SDS011;6499;66.348;14.134;2023-04-03T14:05:56;3.13;;;0.70;;
12861;SDS011;6499;66.348;14.134;2023-04-03T14:08:22;0.83;;;0.53;;
12861;SDS011;6499;66.348;14.134;2023-04-03T14:10:50;1.67;;;0.70;;
12861;SDS011;6499;66.348;14.134;2023-04-03T14:13:18;1.27;;;0.60;;
12861;SDS011;6499;66.348;14.134;2023-04-03T14:15:46;1.60;;;0.87;;
12861;SDS011;6499;66.348;14.134;2023-04-03T14:18:14;0.83;;;0.73;;
12861;SDS011;6499;66.348;14.134;2023-04-03T14:20:40;2.00;;;0.60;;
12861;SDS011;6499;66.348;14.134;2023-04-03T14:23:07;2.07;;;0.70;;
12861;SDS011;6499;66.348;14.134;2023-04-03T14:25:33;1.43;;;0.60;;
12861;SDS011;6499;66.348;14.134;2023-04-03T14:28:06;2.30;;;0.70;;
12861;SDS011;6499;66.348;14.134;2023-04-03T14:30:38;1.80;;;0.70;;
12861;SDS011;6499;66.348;14.134;2023-04-03T14:33:05;1.13;;;0.60;;
12861;SDS011;6499;66.348;14.134;2023-04-03T14:35:32;3.00;;;0.80;;
12861;SDS011;6499;66.348;14.134;2023-04-03T14:37:58;2.00;;;0.90;;
12861;SDS011;6499;66.348;14.134;2023-04-03T14:40:26;2.13;;;0.60;;
12861;SDS011;6499;66.348;14.134;2023-04-03T14:42:53;1.60;;;0.70;;
12861;SDS011;6499;66.348;14.134;2023-04-03T14:45:22;2.07;;;1.00;;
12861;SDS011;6499;66.348;14.134;2023-04-03T14:47:49;2.83;;;0.93;;
12861;SDS011;6499;66.348;14.134;2023-04-03T14:50:17;0.70;;;0.63;;
12861;SDS011;6499;66.348;14.134;2023-04-03T14:52:46;0.80;;;0.70;;
12861;SDS011;6499;66.348;14.134;2023-04-03T14:55:14;1.20;;;0.67;;
12861;SDS011;6499;66.348;14.134;2023-04-03T14:57:40;3.23;;;0.53;;
12861;SDS011;6499;66.348;14.134;2023-04-03T15:00:10;1.03;;;0.73;;
12861;SDS011;6499;66.348;14.134;2023-04-03T15:02:39;1.43;;;0.80;;
12861;SDS011;6499;66.348;14.134;2023-04-03T15:05:07;2.23;;;1.50;;
12861;SDS011;6499;66.348;14.134;2023-04-03T15:07:34;1.97;;;0.90;;
12861;SDS011;6499;66.348;14.134;2023-04-03T15:10:02;1.10;;;0.80;;
12861;SDS011;6499;66.348;14.134;2023-04-03T15:12:29;1.03;;;0.70;;
12861;SDS011;6499;66.348;14.134;2023-04-03T15:14:55;0.97;;;0.80;;
12861;SDS011;6499;66.348;14.134;2023-04-03T15:17:22;1.70;;;1.57;;
12861;SDS011;6499;66.348;14.134;2023-04-03T15:19:50;1.60;;;1.13;;
12861;SDS011;6499;66.348;14.134;2023-04-03T15:22:18;1.60;;;0.70;;
12861;SDS011;6499;66.348;14.134;2023-04-03T15:24:45;2.63;;;1.10;;
12861;SDS011;6499;66.348;14.134;2023-04-03T15:27:11;1.53;;;1.40;;
12861;SDS011;6499;66.348;14.134;2023-04-03T15:29:38;0.93;;;0.80;;
12861;SDS011;6499;66.348;14.134;2023-04-03T15:32:05;2.50;;;1.20;;
12861;SDS011;6499;66.348;14.134;2023-04-03T15:34:31;1.10;;;1.00;;
12861;SDS011;6499;66.348;14.134;2023-04-03T15:36:59;1.40;;;0.80;;
12861;SDS011;6499;66.348;14.134;2023-04-03T15:39:26;1.90;;;1.40;;